createdAt,value
2023-02-24T00:00:38.527Z,100082.03
2023-02-24T00:03:11.145Z,100075.84
2023-02-24T00:05:44.611Z,100081.88
2023-02-24T00:08:14.519Z,100067.94
2023-02-24T00:10:43.210Z,100071.34
2023-02-24T00:13:13.096Z,100071.28
2023-02-24T00:15:41.872Z,100072.09
2023-02-24T00:18:10.541Z,100068.53
2023-02-24T00:20:38.971Z,100065.91
2023-02-24T00:23:09.817Z,100058.03
2023-02-24T00:25:39.568Z,100056.25
2023-02-24T00:28:08.878Z,100047.53
2023-02-24T00:30:37.322Z,100043.19
2023-02-24T00:33:06.735Z,100042.31
2023-02-24T00:35:35.786Z,100033.63
2023-02-24T00:38:04.727Z,100027.47
2023-02-24T00:40:37.207Z,100032.66
2023-02-24T00:43:08.056Z,100028.28
2023-02-24T00:45:39.119Z,100022.16
2023-02-24T00:48:10.757Z,100016.00
2023-02-24T00:50:40.264Z,100018.47
2023-02-24T00:53:10.629Z,100009.75
2023-02-24T00:55:39.055Z,100005.31
2023-02-24T00:58:08.830Z,100011.44
2023-02-24T01:00:37.741Z,100004.38
2023-02-24T01:03:07.483Z,100001.78
2023-02-24T01:05:37.913Z,100006.03
2023-02-24T01:08:06.394Z,99998.06
2023-02-24T01:10:35.612Z,99993.59
2023-02-24T01:13:03.103Z,99998.66
2023-02-24T01:15:32.887Z,99993.31
2023-02-24T01:18:01.370Z,99991.56
2023-02-24T01:20:30.519Z,99997.59
2023-02-24T01:22:59.118Z,99995.78
2023-02-24T01:25:31.410Z,99990.53
2023-02-24T01:27:59.905Z,99993.06
2023-02-24T01:30:29.212Z,99988.66
2023-02-24T01:33:01.713Z,99986.91
2023-02-24T01:35:34.924Z,99985.94
2023-02-24T01:38:04.126Z,99989.44
2023-02-24T01:40:32.933Z,99986.78
2023-02-24T01:43:01.401Z,99985.00
2023-02-24T01:45:36.790Z,99970.25
2023-02-24T01:48:11.048Z,99971.88
2023-02-24T01:50:40.028Z,99970.13
2023-02-24T01:53:11.471Z,99965.72
2023-02-24T01:55:46.633Z,99966.44
2023-02-24T01:58:22.213Z,99966.41
2023-02-24T02:00:51.728Z,99966.41
2023-02-24T02:03:30.915Z,99962.84
2023-02-24T02:06:02.785Z,99954.97
2023-02-24T02:08:31.991Z,99958.41
2023-02-24T02:11:06.044Z,99960.94
2023-02-24T02:13:38.143Z,99953.09
2023-02-24T02:16:47.193Z,99951.28
2023-02-24T02:20:07.157Z,99943.47
2023-02-24T02:23:10.146Z,99936.47
2023-02-24T02:25:57.904Z,99936.47
2023-02-24T02:29:00.201Z,99927.72
2023-02-24T02:31:55.627Z,99917.22
2023-02-24T02:34:36.885Z,99907.59
2023-02-24T02:37:12.162Z,99904.94
2023-02-24T02:39:52.628Z,99897.81
2023-02-24T02:42:28.749Z,99897.69
2023-02-24T02:45:05.703Z,99899.34
2023-02-24T02:47:41.384Z,99895.84
2023-02-24T02:50:21.311Z,99889.72
2023-02-24T02:52:55.080Z,99885.28
2023-02-24T02:55:32.908Z,99869.56
2023-02-24T02:58:04.742Z,99869.50
2023-02-24T03:00:42.072Z,99866.03
2023-02-24T03:03:14.928Z,99870.34
2023-02-24T03:05:48.645Z,99872.84
2023-02-24T03:08:23.595Z,99865.91
2023-02-24T03:10:55.227Z,99862.25
2023-02-24T03:13:28.129Z,99869.97
2023-02-24T03:16:00.440Z,99862.13
2023-02-24T03:18:32.625Z,99867.25
2023-02-24T03:21:07.912Z,99854.97
2023-02-24T03:23:45.352Z,99857.50
2023-02-24T03:26:21.662Z,99858.34
2023-02-24T03:28:59.505Z,99846.16
2023-02-24T03:31:36.900Z,99858.25
2023-02-24T03:34:09.292Z,99854.69
2023-02-24T03:36:39.550Z,99859.00
2023-02-24T03:39:11.941Z,99852.84
2023-02-24T03:41:54.181Z,99839.75
2023-02-24T03:44:24.773Z,99851.91
2023-02-24T03:46:55.762Z,99844.06
2023-02-24T03:49:25.428Z,99842.28
2023-02-24T03:52:09.625Z,99836.13
2023-02-24T03:54:51.842Z,99836.97
2023-02-24T03:57:31.041Z,99835.19
2023-02-24T04:00:20.489Z,99835.19
2023-02-24T04:02:57.365Z,99836.00
2023-02-24T04:05:30.012Z,99829.84
2023-02-24T04:08:08.034Z,99828.09
2023-02-24T04:10:40.379Z,99830.69
2023-02-24T04:13:20.382Z,99825.50
2023-02-24T04:15:57.350Z,99827.22
2023-02-24T04:18:29.223Z,99824.63
2023-02-24T04:21:00.712Z,99821.94
2023-02-24T04:23:33.721Z,99818.47
2023-02-24T04:26:03.041Z,99826.16
2023-02-24T04:28:32.396Z,99821.81
2023-02-24T04:31:06.426Z,99826.03
2023-02-24T04:33:38.489Z,99820.84
2023-02-24T04:36:09.095Z,99820.84
2023-02-24T04:38:41.402Z,99816.53
2023-02-24T04:41:10.911Z,99819.09
2023-02-24T04:43:40.937Z,99810.34
2023-02-24T04:46:09.343Z,99813.75
2023-02-24T04:48:39.089Z,99812.94
2023-02-24T04:51:07.660Z,99802.56
2023-02-24T04:53:38.091Z,99801.59
2023-02-24T04:56:09.403Z,99798.19
2023-02-24T04:58:42.667Z,99791.25
2023-02-24T05:01:12.251Z,99792.94
2023-02-24T05:03:42.584Z,99787.69
2023-02-24T05:06:16.636Z,99790.28
2023-02-24T05:08:45.314Z,99791.91
2023-02-24T05:11:17.120Z,99793.63
2023-02-24T05:13:47.154Z,99784.84
2023-02-24T05:16:18.291Z,99780.44
2023-02-24T05:18:46.970Z,99774.38
2023-02-24T05:21:35.466Z,99776.94
2023-02-24T05:24:06.898Z,99769.81
2023-02-24T05:26:38.905Z,99768.94
2023-02-24T05:29:08.429Z,99764.63
2023-02-24T05:31:37.458Z,99762.03
2023-02-24T05:34:08.103Z,99762.88
2023-02-24T05:36:40.316Z,99759.44
2023-02-24T05:39:12.221Z,99759.44
2023-02-24T05:41:44.342Z,99761.09
2023-02-24T05:44:15.841Z,99755.91
2023-02-24T05:46:46.999Z,99745.53
2023-02-24T05:49:23.446Z,99745.53
2023-02-24T05:51:55.795Z,99747.31
2023-02-24T05:54:29.060Z,99746.41
2023-02-24T05:57:00.211Z,99744.72
2023-02-24T05:59:32.865Z,99730.06
2023-02-24T06:02:07.146Z,99726.59
2023-02-24T06:04:50.973Z,99729.19
2023-02-24T06:07:22.964Z,99725.66
2023-02-24T06:09:53.998Z,99724.78
2023-02-24T06:12:27.362Z,99710.88
2023-02-24T06:14:58.005Z,99715.25
2023-02-24T06:17:26.829Z,99710.88
2023-02-24T06:19:55.631Z,99708.28
2023-02-24T06:22:25.831Z,99701.25
2023-02-24T06:24:55.338Z,99705.56
2023-02-24T06:27:25.761Z,99703.72
2023-02-24T06:29:56.793Z,99703.66
2023-02-24T06:32:28.090Z,99702.75
2023-02-24T06:34:57.485Z,99707.06
2023-02-24T06:37:26.085Z,99705.31
2023-02-24T06:39:54.653Z,99706.94
2023-02-24T06:42:23.350Z,99702.72
2023-02-24T06:44:54.014Z,99710.50
2023-02-24T06:47:22.853Z,99705.31
2023-02-24T06:49:51.566Z,99694.94
2023-02-24T06:52:20.055Z,99697.53
2023-02-24T06:54:52.446Z,99694.94
2023-02-24T06:57:21.020Z,99693.97
2023-02-24T06:59:50.973Z,99683.50
2023-02-24T07:02:21.061Z,99681.69
2023-02-24T07:04:49.496Z,99679.94
2023-02-24T07:07:18.950Z,99678.22
2023-02-24T07:09:47.369Z,99683.41
2023-02-24T07:12:20.970Z,99678.09
2023-02-24T07:14:50.883Z,99678.97
2023-02-24T07:17:23.396Z,99679.84
2023-02-24T07:19:54.618Z,99678.97
2023-02-24T07:22:25.308Z,99676.38
2023-02-24T07:25:00.512Z,99678.03
2023-02-24T07:27:30.139Z,99683.19
2023-02-24T07:29:59.331Z,99672.84
2023-02-24T07:32:30.487Z,99672.00
2023-02-24T07:34:59.686Z,99654.81
2023-02-24T07:37:31.807Z,99657.56
2023-02-24T07:40:01.908Z,99648.88
2023-02-24T07:42:35.386Z,99649.84
2023-02-24T07:45:08.519Z,99643.78
2023-02-24T07:47:38.445Z,99641.19
2023-02-24T07:50:13.544Z,99642.81
2023-02-24T07:52:42.326Z,99629.06
2023-02-24T07:55:11.986Z,99623.03
2023-02-24T07:57:41.623Z,99628.22
2023-02-24T08:00:19.699Z,99629.94
2023-02-24T08:02:51.618Z,99621.22
2023-02-24T08:05:20.544Z,99616.03
2023-02-24T08:07:50.717Z,99622.09
2023-02-24T08:10:26.748Z,99620.31
2023-02-24T08:12:56.655Z,99616.09
2023-02-24T08:15:33.997Z,99619.56
2023-02-24T08:18:04.104Z,99617.03
2023-02-24T08:20:52.143Z,99606.66
2023-02-24T08:23:23.510Z,99606.66
2023-02-24T08:25:53.749Z,99600.66
2023-02-24T08:28:26.815Z,99595.53
2023-02-24T08:30:55.417Z,99587.00
2023-02-24T08:33:30.196Z,99585.16
2023-02-24T08:36:02.571Z,99583.47
2023-02-24T08:38:41.916Z,99580.13
2023-02-24T08:41:20.227Z,99570.63
2023-02-24T08:43:49.741Z,99566.41
2023-02-24T08:46:21.364Z,99564.75
2023-02-24T08:48:55.605Z,99566.53
2023-02-24T08:51:29.072Z,99564.81
2023-02-24T08:54:00.786Z,99555.41
2023-02-24T08:56:34.493Z,99553.75
2023-02-24T08:59:06.392Z,99552.03
2023-02-24T09:01:36.786Z,99546.19
2023-02-24T09:04:09.269Z,99554.06
2023-02-24T09:06:41.455Z,99554.06
2023-02-24T09:09:19.017Z,99552.28
2023-02-24T09:11:49.423Z,99543.69
2023-02-24T09:14:27.246Z,99542.94
2023-02-24T09:17:05.865Z,99545.63
2023-02-24T09:20:01.923Z,99540.53
2023-02-24T09:22:33.061Z,99523.19
2023-02-24T09:25:21.802Z,99523.19
2023-02-24T09:27:56.418Z,99524.97
2023-02-24T09:30:38.896Z,99522.31
2023-02-24T09:33:17.876Z,99520.69
2023-02-24T09:35:50.735Z,99514.81
2023-02-24T09:38:21.117Z,99506.25
2023-02-24T09:40:50.523Z,99501.06
2023-02-24T09:43:24.565Z,99499.38
2023-02-24T09:46:01.837Z,99496.78
2023-02-24T09:48:43.928Z,99497.69
2023-02-24T09:51:22.921Z,99494.31
2023-02-24T09:53:54.828Z,99499.50
2023-02-24T09:56:37.240Z,99488.22
2023-02-24T09:59:26.112Z,99489.16
2023-02-24T10:02:04.034Z,99486.53
2023-02-24T10:04:55.936Z,99483.03
2023-02-24T10:07:38.469Z,99480.53
2023-02-24T10:10:20.615Z,99477.09
2023-02-24T10:12:53.333Z,99468.50
2023-02-24T10:15:56.952Z,99468.50
2023-02-24T10:18:32.972Z,99466.84
2023-02-24T10:21:15.621Z,99457.25
2023-02-24T10:24:05.822Z,99452.88
2023-02-24T10:26:59.706Z,99443.44
2023-02-24T10:29:43.556Z,99443.63
2023-02-24T10:32:23.952Z,99442.78
2023-02-24T10:34:53.712Z,99443.56
2023-02-24T10:37:28.770Z,99438.31
2023-02-24T10:40:09.658Z,99435.47
2023-02-24T10:42:45.925Z,99437.13
2023-02-24T10:45:19.635Z,99419.72
2023-02-24T10:47:56.796Z,99415.28
2023-02-24T10:50:30.300Z,99419.47
2023-02-24T10:53:26.200Z,99408.97
2023-02-24T10:56:15.367Z,99415.81
2023-02-24T10:58:56.852Z,99414.94
2023-02-24T11:01:43.612Z,99408.00
2023-02-24T11:04:33.614Z,99415.00
2023-02-24T11:07:11.745Z,99410.63
2023-02-24T11:09:52.426Z,99411.38
2023-02-24T11:12:42.115Z,99402.63
2023-02-24T11:18:56.156Z,99377.28
2023-02-24T11:21:27.642Z,99377.19
2023-02-24T11:23:59.568Z,99375.28
2023-02-24T11:26:35.413Z,99369.06
2023-02-24T11:29:26.735Z,99365.47
2023-02-24T11:32:15.534Z,99364.44
2023-02-24T11:34:53.856Z,99355.63
2023-02-24T11:37:34.616Z,99353.88
2023-02-24T11:40:08.140Z,99355.41
2023-02-24T11:42:43.687Z,99349.16
2023-02-24T11:45:29.346Z,99332.53
2023-02-24T11:48:03.665Z,99330.66
2023-02-24T11:50:43.579Z,99330.53
2023-02-24T11:53:28.350Z,99327.81
2023-02-24T11:56:04.353Z,99319.94
2023-02-24T11:58:46.283Z,99309.47
2023-02-24T12:01:24.420Z,99315.44
2023-02-24T12:04:00.272Z,99299.00
2023-02-24T12:06:35.310Z,99300.63
2023-02-24T12:09:12.813Z,99303.97
2023-02-24T12:11:51.365Z,99296.91
2023-02-24T12:14:27.657Z,99288.16
2023-02-24T12:17:07.757Z,99277.69
2023-02-24T12:19:42.312Z,99288.03
2023-02-24T12:22:16.129Z,99277.53
2023-02-24T12:24:52.133Z,99271.41
2023-02-24T12:27:34.276Z,99279.19
2023-02-24T12:30:34.060Z,99277.41
2023-02-24T12:33:17.212Z,99275.66
2023-02-24T12:35:51.400Z,99269.53
2023-02-24T12:38:35.850Z,99262.44
2023-02-24T12:41:19.199Z,99252.75
2023-02-24T12:43:56.366Z,99251.81
2023-02-24T12:46:27.857Z,99241.34
2023-02-24T12:49:23.486Z,99244.81
2023-02-24T12:51:59.894Z,99241.34
2023-02-24T12:54:33.923Z,99239.63
2023-02-24T12:57:12.541Z,99229.28
2023-02-24T12:59:42.479Z,99225.81
2023-02-24T13:02:20.985Z,99225.81
2023-02-24T13:05:01.362Z,99207.72
2023-02-24T13:07:51.957Z,99212.03
2023-02-24T13:10:33.670Z,99205.13
2023-02-24T13:13:11.879Z,99202.56
2023-02-24T13:15:51.408Z,99195.66
2023-02-24T13:18:28.847Z,99194.69
2023-02-24T13:21:10.663Z,99200.72
2023-02-24T13:23:43.754Z,99196.41
2023-02-24T13:26:12.110Z,99186.94
2023-02-24T13:28:40.588Z,99194.81
2023-02-24T13:31:11.544Z,99183.66
2023-02-24T13:33:41.402Z,99178.47
2023-02-24T13:36:15.404Z,99171.66
2023-02-24T13:38:45.766Z,99173.41
2023-02-24T13:41:35.783Z,99163.06
2023-02-24T13:44:22.053Z,99163.06
2023-02-24T13:47:10.265Z,99160.47
2023-02-24T13:49:50.804Z,99161.34
2023-02-24T13:52:36.697Z,99147.59
2023-02-24T13:55:26.060Z,99145.00
2023-02-24T13:58:21.555Z,99139.88
2023-02-24T14:00:57.274Z,99137.28
2023-02-24T14:03:27.777Z,99139.88
2023-02-24T14:05:57.370Z,99129.53
2023-02-24T14:08:35.785Z,99132.19
2023-02-24T14:11:04.534Z,99131.41
2023-02-24T14:13:36.673Z,99122.88
2023-02-24T14:16:09.196Z,99123.81
2023-02-24T14:18:38.224Z,99122.97
2023-02-24T14:21:06.861Z,99115.28
2023-02-24T14:23:37.739Z,99108.47
2023-02-24T14:26:09.116Z,99120.63
2023-02-24T14:28:40.508Z,99118.91
2023-02-24T14:31:13.616Z,99117.28
2023-02-24T14:33:45.309Z,99108.66
2023-02-24T14:36:19.898Z,99100.97
2023-02-24T14:39:02.265Z,99092.38
2023-02-24T14:41:30.757Z,99098.41
2023-02-24T14:43:59.096Z,99089.78
2023-02-24T14:46:27.606Z,99089.84
2023-02-24T14:48:57.234Z,99090.78
2023-02-24T14:51:30.130Z,99085.63
2023-02-24T14:54:04.447Z,99087.41
2023-02-24T14:56:35.403Z,99080.56
2023-02-24T14:59:08.663Z,99072.78
2023-02-24T15:01:40.710Z,99080.69
2023-02-24T15:04:14.954Z,99072.16
2023-02-24T15:06:44.780Z,99074.78
2023-02-24T15:09:19.325Z,99067.91
2023-02-24T15:11:48.476Z,99065.41
2023-02-24T15:14:24.033Z,99054.22
2023-02-24T15:16:54.228Z,99057.75
2023-02-24T15:19:27.470Z,99048.34
2023-02-24T15:21:56.159Z,99050.19
2023-02-24T15:24:29.817Z,99044.22
2023-02-24T15:27:00.004Z,99036.50
2023-02-24T15:29:31.120Z,99043.50
2023-02-24T15:32:01.293Z,99037.53
2023-02-24T15:34:32.016Z,99032.47
2023-02-24T15:37:04.412Z,99033.41
2023-02-24T15:39:36.963Z,99017.94
2023-02-24T15:42:10.683Z,99017.13
2023-02-24T15:44:39.119Z,99021.56
2023-02-24T15:47:22.862Z,99013.91
2023-02-24T15:49:51.169Z,99009.66
2023-02-24T15:52:24.077Z,99002.78
2023-02-24T15:54:54.556Z,99003.72
2023-02-24T15:57:23.505Z,98989.13
2023-02-24T15:59:53.344Z,98994.34
2023-02-24T16:02:24.159Z,98996.09
2023-02-24T16:04:53.120Z,98992.72
2023-02-24T16:07:24.722Z,98991.88
2023-02-24T16:09:56.029Z,98994.53
2023-02-24T16:12:28.736Z,98986.81
2023-02-24T16:15:02.957Z,98979.06
2023-02-24T16:17:34.117Z,98986.06
2023-02-24T16:20:08.476Z,98993.03
2023-02-24T16:22:37.562Z,98999.16
2023-02-24T16:25:08.716Z,98988.81
2023-02-24T16:27:37.316Z,99000.09
2023-02-24T16:30:07.390Z,98983.69
2023-02-24T16:32:36.070Z,98984.63
2023-02-24T16:35:04.837Z,98992.41
2023-02-24T16:37:33.192Z,99000.16
2023-02-24T16:40:01.631Z,99002.78
2023-02-24T16:42:31.538Z,99008.03
2023-02-24T16:44:59.908Z,99018.44
2023-02-24T16:47:28.349Z,99009.88
2023-02-24T16:49:57.696Z,99004.69
2023-02-24T16:52:26.002Z,99009.06
2023-02-24T16:54:54.345Z,99009.13
2023-02-24T16:57:25.396Z,99008.22
2023-02-24T16:59:55.345Z,98997.84
2023-02-24T17:02:26.255Z,98998.75
2023-02-24T17:04:54.596Z,99004.81
2023-02-24T17:07:23.034Z,98997.84
2023-02-24T17:09:51.512Z,99003.94
2023-02-24T17:12:22.335Z,99004.81
2023-02-24T17:14:50.980Z,98991.88
2023-02-24T17:17:23.033Z,99001.38
2023-02-24T17:19:54.085Z,98998.75
2023-02-24T17:22:23.250Z,99001.38
2023-02-24T17:24:51.761Z,98994.47
2023-02-24T17:27:20.461Z,98985.81
2023-02-24T17:29:48.924Z,98997.06
2023-02-24T17:32:20.117Z,99004.03
2023-02-24T17:34:50.158Z,99015.19
2023-02-24T17:37:18.588Z,99017.84
2023-02-24T17:39:47.080Z,99010.06
2023-02-24T17:42:15.583Z,99017.91
2023-02-24T17:44:45.300Z,99018.78
2023-02-24T17:47:14.094Z,99020.53
2023-02-24T17:49:42.608Z,99011.03
2023-02-24T17:52:12.609Z,99014.56
2023-02-24T17:54:41.051Z,99018.88
2023-02-24T17:57:09.738Z,99027.59
2023-02-24T17:59:38.496Z,99029.34
2023-02-24T18:02:07.312Z,99031.13
2023-02-24T18:04:35.943Z,99036.31
2023-02-24T18:07:04.522Z,99038.06
2023-02-24T18:09:36.801Z,99038.13
2023-02-24T18:12:07.311Z,99038.97
2023-02-24T18:14:36.675Z,99032.06
2023-02-24T18:17:05.316Z,99034.66
2023-02-24T18:19:34.263Z,99038.97
2023-02-24T18:22:02.834Z,99038.13
2023-02-24T18:24:31.429Z,99037.31
2023-02-24T18:27:04.388Z,99039.00
2023-02-24T18:29:33.280Z,99028.63
2023-02-24T18:32:03.238Z,99026.94
2023-02-24T18:34:32.239Z,99018.25
2023-02-24T18:37:01.511Z,99019.16
2023-02-24T18:39:30.666Z,99021.69
2023-02-24T18:41:59.662Z,99019.16
2023-02-24T18:44:29.622Z,99031.22
2023-02-24T18:46:58.353Z,99026.03
2023-02-24T18:49:26.988Z,99047.69
2023-02-24T18:51:55.642Z,99060.66
2023-02-24T18:54:24.518Z,99052.81
2023-02-24T18:56:54.218Z,99053.63
2023-02-24T18:59:22.682Z,99063.81
2023-02-24T19:01:53.277Z,99063.69
2023-02-24T19:04:21.890Z,99067.84
2023-02-24T19:06:50.745Z,99078.13
2023-02-24T19:09:22.024Z,99068.47
2023-02-24T19:11:52.886Z,99071.03
2023-02-24T19:14:23.426Z,99080.41
2023-02-24T19:16:55.205Z,99059.59
2023-02-24T19:19:24.187Z,99066.44
2023-02-24T19:21:52.997Z,99067.22
2023-02-24T19:24:22.251Z,99069.78
2023-02-24T19:26:53.155Z,99074.06
2023-02-24T19:29:22.232Z,99076.59
2023-02-24T19:31:53.990Z,99072.31
2023-02-24T19:34:24.288Z,99076.59
2023-02-24T19:36:52.802Z,99076.59
2023-02-24T19:39:21.301Z,99082.66
2023-02-24T19:41:50.177Z,99081.81
2023-02-24T19:44:21.257Z,99086.13
2023-02-24T19:46:50.020Z,99087.84
2023-02-24T19:49:18.593Z,99092.25
2023-02-24T19:51:48.628Z,99097.44
2023-02-24T19:54:17.293Z,99091.38
2023-02-24T19:56:46.028Z,99096.63
2023-02-24T19:59:14.783Z,99105.22
2023-02-24T20:01:46.630Z,99110.47
2023-02-24T20:04:15.218Z,99114.78
2023-02-24T20:06:44.315Z,99108.75
2023-02-24T20:09:16.185Z,99121.72
2023-02-24T20:11:46.229Z,99125.97
2023-02-24T20:14:16.207Z,99125.84
2023-02-24T20:16:45.380Z,99118.00
2023-02-24T20:19:15.826Z,99120.44
2023-02-24T20:21:44.909Z,99127.25
2023-02-24T20:24:17.320Z,99117.66
2023-02-24T20:26:49.624Z,99115.78
2023-02-24T20:29:20.767Z,99119.13
2023-02-24T20:31:50.061Z,99108.69
2023-02-24T20:34:21.109Z,99117.25
2023-02-24T20:36:49.791Z,99123.19
2023-02-24T20:39:21.920Z,99123.09
2023-02-24T20:41:51.007Z,99129.88
2023-02-24T20:44:19.519Z,99127.19
2023-02-24T20:46:48.542Z,99130.59
2023-02-24T20:49:17.216Z,99131.38
2023-02-24T20:51:46.306Z,99133.06
2023-02-24T20:54:15.815Z,99140.84
2023-02-24T20:56:47.068Z,99140.72
2023-02-24T20:59:18.368Z,99138.97
2023-02-24T21:01:48.430Z,99146.69
2023-02-24T21:04:19.642Z,99141.47
2023-02-24T21:06:48.964Z,99144.84
2023-02-24T21:09:17.629Z,99141.22
2023-02-24T21:11:47.839Z,99148.06
2023-02-24T21:14:17.776Z,99148.84
2023-02-24T21:16:47.016Z,99147.88
2023-02-24T21:19:17.753Z,99138.31
2023-02-24T21:21:46.554Z,99145.16
2023-02-24T21:24:15.340Z,99141.63
2023-02-24T21:26:44.094Z,99140.59
2023-02-24T21:29:14.242Z,99153.53
2023-02-24T21:31:45.688Z,99153.41
2023-02-24T21:34:16.900Z,99149.88
2023-02-24T21:36:46.637Z,99156.69
2023-02-24T21:39:15.526Z,99151.41
2023-02-24T21:41:44.725Z,99147.03
2023-02-24T21:44:17.255Z,99144.41
2023-02-24T21:46:46.000Z,99150.38
2023-02-24T21:49:18.309Z,99154.59
2023-02-24T21:51:46.956Z,99156.25
2023-02-24T21:54:15.829Z,99163.94
2023-02-24T21:56:44.595Z,99167.44
2023-02-24T21:59:14.557Z,99164.84
2023-02-24T22:01:45.286Z,99166.53
2023-02-24T22:04:16.951Z,99174.28
2023-02-24T22:06:46.447Z,99170.00
2023-02-24T22:09:19.413Z,99167.44
2023-02-24T22:11:51.452Z,99166.59
2023-02-24T22:14:21.651Z,99164.94
2023-02-24T22:16:50.449Z,99173.66
2023-02-24T22:19:20.176Z,99170.22
2023-02-24T22:21:49.038Z,99165.94
2023-02-24T22:24:21.415Z,99171.19
2023-02-24T22:26:53.913Z,99174.66
2023-02-24T22:29:24.464Z,99174.66
2023-02-24T22:31:53.563Z,99166.88
2023-02-24T22:34:22.369Z,99170.34
2023-02-24T22:36:51.012Z,99170.34
2023-02-24T22:39:19.690Z,99177.31
2023-02-24T22:41:51.641Z,99177.31
2023-02-24T22:44:21.105Z,99180.78
2023-02-24T22:46:51.073Z,99180.78
2023-02-24T22:49:19.690Z,99181.56
2023-02-24T22:51:48.476Z,99180.69
2023-02-24T22:54:17.464Z,99187.59
2023-02-24T22:56:46.651Z,99178.88
2023-02-24T22:59:15.889Z,99186.59
2023-02-24T23:01:44.751Z,99177.81
2023-02-24T23:04:18.859Z,99181.44
2023-02-24T23:06:48.283Z,99184.00
2023-02-24T23:09:21.789Z,99189.19
2023-02-24T23:11:50.314Z,99194.38
2023-02-24T23:14:18.986Z,99200.41
2023-02-24T23:16:55.810Z,99195.16
2023-02-24T23:19:25.948Z,99199.53
2023-02-24T23:21:56.259Z,99208.13
2023-02-24T23:24:24.708Z,99213.34
2023-02-24T23:26:57.252Z,99206.41
2023-02-24T23:29:26.761Z,99211.56
2023-02-24T23:31:55.344Z,99212.47
2023-02-24T23:34:25.588Z,99209.91
2023-02-24T23:36:54.174Z,99215.06
2023-02-24T23:39:24.109Z,99216.72
2023-02-24T23:41:56.690Z,99219.31
2023-02-24T23:44:25.949Z,99222.69
2023-02-24T23:46:54.836Z,99230.47
2023-02-24T23:49:23.259Z,99224.47
2023-02-24T23:51:53.244Z,99224.53
2023-02-24T23:54:21.646Z,99228.00
2023-02-24T23:56:50.311Z,99224.53
2023-02-24T23:59:18.788Z,99226.22
